Georgetown, Maine
Current Conditions -  °F | °C
As of 10:53 AM on Friday 19 Dec 2014 (Local Time) from KIWI Reporting Station
Few Clouds Few Clouds  
Wind Chill: 29°   Ceiling: Unl
Heat Index: 34°   Visibility: 10mi
Dew Point: 20°   Wind: 6mph
Humidity: 56%   Direction: NA
Pressure: 29.93"   Gusts: NA
Location:  43.8°N, 69.75°W
Report Text: KIWI 191553Z AUTO VRB05KT 10SM FEW031 01/M07 A2993 RMK AO2 SLP135 T00111067
Loading
Personal Weather Stations






























Interactive Weather Map New forecast layout! Learn more

10-Day Weather Forecast

Advertisements
Track Severe Weather on mobile